sensor_id;sensor_type;location;lat;lon;timestamp;pressure;altitude;pressure_sealevel;temperature;humidity
44697;BME280;57264;47.480;19.354;2023-04-27T00:01:53;99291.75;;;3.02;66.95
44697;BME280;57264;47.480;19.354;2023-04-27T00:04:21;99298.69;;;3.01;67.05
44697;BME280;57264;47.480;19.354;2023-04-27T00:06:47;99286.88;;;2.99;67.10
44697;BME280;57264;47.480;19.354;2023-04-27T00:09:12;99287.69;;;2.99;66.90
44697;BME280;57264;47.480;19.354;2023-04-27T00:11:38;99285.41;;;2.96;67.22
44697;BME280;57264;47.480;19.354;2023-04-27T00:14:03;99286.03;;;2.90;67.36
44697;BME280;57264;47.480;19.354;2023-04-27T00:16:29;99287.34;;;2.94;67.66
44697;BME280;57264;47.480;19.354;2023-04-27T00:18:54;99286.97;;;2.89;67.82
44697;BME280;57264;47.480;19.354;2023-04-27T00:21:20;99286.34;;;2.87;67.74
44697;BME280;57264;47.480;19.354;2023-04-27T00:23:46;99291.44;;;2.71;70.29
44697;BME280;57264;47.480;19.354;2023-04-27T00:26:11;99282.28;;;2.85;68.85
44697;BME280;57264;47.480;19.354;2023-04-27T00:28:37;99278.75;;;2.94;68.17
44697;BME280;57264;47.480;19.354;2023-04-27T00:31:02;99282.78;;;2.88;67.97
44697;BME280;57264;47.480;19.354;2023-04-27T00:33:29;99283.50;;;3.06;67.76
44697;BME280;57264;47.480;19.354;2023-04-27T00:35:58;99286.06;;;2.98;67.88
44697;BME280;57264;47.480;19.354;2023-04-27T00:38:24;99284.13;;;3.00;68.14
44697;BME280;57264;47.480;19.354;2023-04-27T00:40:50;99293.19;;;2.96;68.52
44697;BME280;57264;47.480;19.354;2023-04-27T00:43:15;99282.97;;;2.95;68.57
44697;BME280;57264;47.480;19.354;2023-04-27T00:45:42;99295.47;;;2.99;68.23
44697;BME280;57264;47.480;19.354;2023-04-27T00:48:09;99300.69;;;3.07;67.67
44697;BME280;57264;47.480;19.354;2023-04-27T00:50:34;99301.50;;;3.08;67.91
44697;BME280;57264;47.480;19.354;2023-04-27T00:53:01;99301.44;;;2.92;69.25
44697;BME280;57264;47.480;19.354;2023-04-27T00:55:27;99301.56;;;2.90;69.91
44697;BME280;57264;47.480;19.354;2023-04-27T00:57:52;99302.53;;;2.89;69.88
44697;BME280;57264;47.480;19.354;2023-04-27T01:00:18;99296.53;;;2.80;69.22
44697;BME280;57264;47.480;19.354;2023-04-27T01:02:43;99295.34;;;2.75;69.45
44697;BME280;57264;47.480;19.354;2023-04-27T01:05:09;99303.34;;;2.90;68.96
44697;BME280;57264;47.480;19.354;2023-04-27T01:07:38;99300.47;;;2.93;68.75
44697;BME280;57264;47.480;19.354;2023-04-27T01:10:05;99298.38;;;2.96;69.08
44697;BME280;57264;47.480;19.354;2023-04-27T01:12:31;99300.63;;;2.91;68.88
44697;BME280;57264;47.480;19.354;2023-04-27T01:14:57;99302.53;;;2.89;68.81
44697;BME280;57264;47.480;19.354;2023-04-27T01:17:22;99302.50;;;2.81;68.90
44697;BME280;57264;47.480;19.354;2023-04-27T01:19:48;99301.34;;;2.75;69.41
44697;BME280;57264;47.480;19.354;2023-04-27T01:22:15;99304.59;;;2.77;69.47
44697;BME280;57264;47.480;19.354;2023-04-27T01:24:41;99301.00;;;2.70;69.31
44697;BME280;57264;47.480;19.354;2023-04-27T01:27:07;99302.44;;;2.73;68.92
44697;BME280;57264;47.480;19.354;2023-04-27T01:29:32;99308.44;;;2.99;68.17
44697;BME280;57264;47.480;19.354;2023-04-27T01:31:58;99307.69;;;3.15;67.29
44697;BME280;57264;47.480;19.354;2023-04-27T01:34:23;99308.81;;;3.12;67.26
44697;BME280;57264;47.480;19.354;2023-04-27T01:36:49;99305.97;;;3.32;66.81
44697;BME280;57264;47.480;19.354;2023-04-27T01:39:14;99307.88;;;3.29;67.19
44697;BME280;57264;47.480;19.354;2023-04-27T01:41:40;99307.63;;;3.41;66.67
44697;BME280;57264;47.480;19.354;2023-04-27T01:44:06;99306.16;;;3.46;66.44
44697;BME280;57264;47.480;19.354;2023-04-27T01:46:32;99308.44;;;3.49;66.29
44697;BME280;57264;47.480;19.354;2023-04-27T01:48:57;99309.25;;;3.58;65.59
44697;BME280;57264;47.480;19.354;2023-04-27T01:51:23;99304.38;;;3.47;66.16
44697;BME280;57264;47.480;19.354;2023-04-27T01:53:49;99310.88;;;3.59;65.37
44697;BME280;57264;47.480;19.354;2023-04-27T01:56:14;99307.00;;;3.63;65.37
44697;BME280;57264;47.480;19.354;2023-04-27T01:58:40;99312.03;;;3.56;65.75
44697;BME280;57264;47.480;19.354;2023-04-27T02:01:05;99318.34;;;3.62;65.03
44697;BME280;57264;47.480;19.354;2023-04-27T02:03:31;99311.22;;;3.56;65.60
44697;BME280;57264;47.480;19.354;2023-04-27T02:05:56;99314.44;;;3.58;65.54
44697;BME280;57264;47.480;19.354;2023-04-27T02:08:22;99316.09;;;3.59;65.56
44697;BME280;57264;47.480;19.354;2023-04-27T02:10:47;99316.09;;;3.59;65.10
44697;BME280;57264;47.480;19.354;2023-04-27T02:13:13;99320.00;;;3.63;65.37
44697;BME280;57264;47.480;19.354;2023-04-27T02:15:38;99324.84;;;3.58;65.21
44697;BME280;57264;47.480;19.354;2023-04-27T02:18:04;99324.53;;;3.61;64.95
44697;BME280;57264;47.480;19.354;2023-04-27T02:20:30;99330.84;;;3.58;64.87
44697;BME280;57264;47.480;19.354;2023-04-27T02:22:56;99324.22;;;3.64;64.78
44697;BME280;57264;47.480;19.354;2023-04-27T02:25:21;99330.38;;;3.63;64.92
44697;BME280;57264;47.480;19.354;2023-04-27T02:27:47;99329.38;;;3.56;65.07
44697;BME280;57264;47.480;19.354;2023-04-27T02:30:13;99332.31;;;3.53;65.35
44697;BME280;57264;47.480;19.354;2023-04-27T02:32:39;99325.00;;;3.56;65.24
44697;BME280;57264;47.480;19.354;2023-04-27T02:35:06;99326.31;;;3.60;64.91
44697;BME280;57264;47.480;19.354;2023-04-27T02:37:32;99329.56;;;3.62;64.56
44697;BME280;57264;47.480;19.354;2023-04-27T02:39:58;99331.16;;;3.55;65.08
44697;BME280;57264;47.480;19.354;2023-04-27T02:42:24;99323.53;;;3.54;64.91
44697;BME280;57264;47.480;19.354;2023-04-27T02:44:50;99329.84;;;3.51;65.00
44697;BME280;57264;47.480;19.354;2023-04-27T02:47:15;99330.50;;;3.61;64.09
44697;BME280;57264;47.480;19.354;2023-04-27T02:49:41;99334.75;;;3.62;64.43
44697;BME280;57264;47.480;19.354;2023-04-27T02:52:07;99338.31;;;3.61;64.29
44697;BME280;57264;47.480;19.354;2023-04-27T02:54:33;99336.53;;;3.62;64.42
44697;BME280;57264;47.480;19.354;2023-04-27T02:56:59;99343.00;;;3.58;64.25
44697;BME280;57264;47.480;19.354;2023-04-27T02:59:25;99344.19;;;3.71;63.49
44697;BME280;57264;47.480;19.354;2023-04-27T03:01:51;99347.56;;;3.64;63.82
44697;BME280;57264;47.480;19.354;2023-04-27T03:04:16;99356.34;;;3.71;63.40
44697;BME280;57264;47.480;19.354;2023-04-27T03:06:43;99357.19;;;3.80;63.25
44697;BME280;57264;47.480;19.354;2023-04-27T03:09:08;99355.53;;;3.78;63.31
44697;BME280;57264;47.480;19.354;2023-04-27T03:11:35;99359.91;;;3.70;63.77
44697;BME280;57264;47.480;19.354;2023-04-27T03:14:01;99360.22;;;3.67;63.74
44697;BME280;57264;47.480;19.354;2023-04-27T03:16:27;99365.41;;;3.59;63.95
44697;BME280;57264;47.480;19.354;2023-04-27T03:18:52;99361.50;;;3.55;63.82
44697;BME280;57264;47.480;19.354;2023-04-27T03:21:18;99363.47;;;3.61;63.78
44697;BME280;57264;47.480;19.354;2023-04-27T03:23:44;99373.06;;;3.68;63.95
44697;BME280;57264;47.480;19.354;2023-04-27T03:26:11;99368.16;;;3.65;63.72
44697;BME280;57264;47.480;19.354;2023-04-27T03:28:37;99374.50;;;3.71;63.46
44697;BME280;57264;47.480;19.354;2023-04-27T03:31:13;99368.53;;;3.78;62.78
44697;BME280;57264;47.480;19.354;2023-04-27T03:33:39;99380.22;;;3.83;63.03
44697;BME280;57264;47.480;19.354;2023-04-27T03:36:06;99375.50;;;3.78;63.39
44697;BME280;57264;47.480;19.354;2023-04-27T03:38:32;99383.00;;;3.81;62.79
44697;BME280;57264;47.480;19.354;2023-04-27T03:40:58;99375.69;;;3.76;63.23
44697;BME280;57264;47.480;19.354;2023-04-27T03:43:24;99379.75;;;3.87;62.84
44697;BME280;57264;47.480;19.354;2023-04-27T03:45:51;99387.22;;;3.90;62.88
44697;BME280;57264;47.480;19.354;2023-04-27T03:48:17;99387.41;;;3.97;62.24
44697;BME280;57264;47.480;19.354;2023-04-27T03:50:43;99385.94;;;4.10;61.82
44697;BME280;57264;47.480;19.354;2023-04-27T03:53:09;99392.94;;;4.10;62.13
44697;BME280;57264;47.480;19.354;2023-04-27T03:55:40;99388.41;;;4.20;61.46
44697;BME280;57264;47.480;19.354;2023-04-27T03:58:07;99398.16;;;4.26;61.08
44697;BME280;57264;47.480;19.354;2023-04-27T04:00:34;99388.91;;;4.23;61.20
44697;BME280;57264;47.480;19.354;2023-04-27T04:03:00;99396.69;;;4.15;61.60
44697;BME280;57264;47.480;19.354;2023-04-27T04:05:25;99390.53;;;4.16;61.58
44697;BME280;57264;47.480;19.354;2023-04-27T04:07:51;99403.31;;;4.18;61.63
44697;BME280;57264;47.480;19.354;2023-04-27T04:10:17;99407.41;;;4.20;61.74
44697;BME280;57264;47.480;19.354;2023-04-27T04:12:42;99405.44;;;4.14;61.96
44697;BME280;57264;47.480;19.354;2023-04-27T04:15:08;99411.63;;;4.30;61.58
44697;BME280;57264;47.480;19.354;2023-04-27T04:17:34;99416.66;;;4.31;62.06
44697;BME280;57264;47.480;19.354;2023-04-27T04:20:00;99420.09;;;4.32;61.38
44697;BME280;57264;47.480;19.354;2023-04-27T04:22:26;99422.03;;;4.38;61.53
44697;BME280;57264;47.480;19.354;2023-04-27T04:24:51;99424.63;;;4.62;60.89
44697;BME280;57264;47.480;19.354;2023-04-27T04:27:17;99423.66;;;4.71;60.00
44697;BME280;57264;47.480;19.354;2023-04-27T04:29:42;99421.72;;;4.57;60.40
44697;BME280;57264;47.480;19.354;2023-04-27T04:32:08;99425.44;;;4.70;60.32
44697;BME280;57264;47.480;19.354;2023-04-27T04:34:34;99426.59;;;4.84;60.08
44697;BME280;57264;47.480;19.354;2023-04-27T04:37:00;99432.13;;;4.73;60.89
44697;BME280;57264;47.480;19.354;2023-04-27T04:39:34;99431.78;;;4.84;60.29
44697;BME280;57264;47.480;19.354;2023-04-27T04:42:00;99430.50;;;4.64;60.61
44697;BME280;57264;47.480;19.354;2023-04-27T04:44:26;99431.94;;;4.83;60.14
44697;BME280;57264;47.480;19.354;2023-04-27T04:46:51;99428.03;;;4.87;59.93
44697;BME280;57264;47.480;19.354;2023-04-27T04:49:17;99432.25;;;5.04;58.48
44697;BME280;57264;47.480;19.354;2023-04-27T04:51:43;99426.91;;;5.05;58.22
44697;BME280;57264;47.480;19.354;2023-04-27T04:54:09;99435.28;;;5.24;58.51
44697;BME280;57264;47.480;19.354;2023-04-27T04:56:35;99436.91;;;5.33;57.42
44697;BME280;57264;47.480;19.354;2023-04-27T04:59:01;99426.28;;;5.42;58.02
44697;BME280;57264;47.480;19.354;2023-04-27T05:01:27;99438.34;;;5.35;57.65
44697;BME280;57264;47.480;19.354;2023-04-27T05:03:52;99438.19;;;5.37;58.04
44697;BME280;57264;47.480;19.354;2023-04-27T05:06:18;99438.03;;;5.30;58.28
44697;BME280;57264;47.480;19.354;2023-04-27T05:08:43;99445.53;;;5.33;58.24
44697;BME280;57264;47.480;19.354;2023-04-27T05:11:09;99443.91;;;5.24;58.33
44697;BME280;57264;47.480;19.354;2023-04-27T05:13:35;99453.19;;;5.10;59.20
44697;BME280;57264;47.480;19.354;2023-04-27T05:16:06;99445.72;;;5.07;58.75
44697;BME280;57264;47.480;19.354;2023-04-27T05:18:35;99461.19;;;5.01;58.97
44697;BME280;57264;47.480;19.354;2023-04-27T05:21:01;99455.31;;;5.15;59.48
44697;BME280;57264;47.480;19.354;2023-04-27T05:23:26;99464.19;;;6.00;56.87
44697;BME280;57264;47.480;19.354;2023-04-27T05:25:52;99464.00;;;6.78;54.50
44697;BME280;57264;47.480;19.354;2023-04-27T05:28:17;99460.38;;;7.16;52.66
44697;BME280;57264;47.480;19.354;2023-04-27T05:30:43;99456.69;;;7.84;50.69
44697;BME280;57264;47.480;19.354;2023-04-27T05:33:08;99458.13;;;8.37;50.79
44697;BME280;57264;47.480;19.354;2023-04-27T05:35:34;99456.88;;;8.75;48.84
44697;BME280;57264;47.480;19.354;2023-04-27T05:38:00;99459.34;;;9.05;48.85
44697;BME280;57264;47.480;19.354;2023-04-27T05:40:26;99471.13;;;8.66;49.57
44697;BME280;57264;47.480;19.354;2023-04-27T05:42:51;99466.22;;;9.40;47.51
44697;BME280;57264;47.480;19.354;2023-04-27T05:45:17;99465.13;;;10.03;46.43
44697;BME280;57264;47.480;19.354;2023-04-27T05:47:43;99459.78;;;11.69;42.12
44697;BME280;57264;47.480;19.354;2023-04-27T05:50:09;99460.41;;;12.22;41.45
44697;BME280;57264;47.480;19.354;2023-04-27T05:52:35;99474.63;;;10.04;44.65
44697;BME280;57264;47.480;19.354;2023-04-27T05:55:01;99472.59;;;11.19;43.46
44697;BME280;57264;47.480;19.354;2023-04-27T05:57:27;99472.00;;;9.29;45.85
44697;BME280;57264;47.480;19.354;2023-04-27T05:59:53;99474.13;;;9.19;46.93
44697;BME280;57264;47.480;19.354;2023-04-27T06:02:18;99481.00;;;8.92;47.96
44697;BME280;57264;47.480;19.354;2023-04-27T06:04:47;99478.72;;;9.10;48.14
44697;BME280;57264;47.480;19.354;2023-04-27T06:07:14;99477.56;;;9.47;45.15
44697;BME280;57264;47.480;19.354;2023-04-27T06:09:42;99473.88;;;9.69;45.05
44697;BME280;57264;47.480;19.354;2023-04-27T06:12:08;99485.19;;;10.17;44.79
44697;BME280;57264;47.480;19.354;2023-04-27T06:14:35;99477.63;;;10.55;44.32
44697;BME280;57264;47.480;19.354;2023-04-27T06:17:04;99477.88;;;11.00;42.22
44697;BME280;57264;47.480;19.354;2023-04-27T06:19:30;99482.13;;;11.14;42.88
44697;BME280;57264;47.480;19.354;2023-04-27T06:21:56;99480.81;;;11.76;41.24
44697;BME280;57264;47.480;19.354;2023-04-27T06:24:21;99484.81;;;11.98;40.08
44697;BME280;57264;47.480;19.354;2023-04-27T06:26:50;99473.84;;;12.01;40.16
44697;BME280;57264;47.480;19.354;2023-04-27T06:29:15;99480.91;;;13.07;38.19
44697;BME280;57264;47.480;19.354;2023-04-27T06:31:41;99486.50;;;12.61;41.82
44697;BME280;57264;47.480;19.354;2023-04-27T06:34:07;99486.91;;;12.90;42.94
44697;BME280;57264;47.480;19.354;2023-04-27T06:36:32;99489.22;;;13.36;40.02
44697;BME280;57264;47.480;19.354;2023-04-27T06:38:58;99484.63;;;13.68;38.37
44697;BME280;57264;47.480;19.354;2023-04-27T06:41:25;99489.16;;;13.60;41.00
44697;BME280;57264;47.480;19.354;2023-04-27T06:43:51;99488.28;;;14.03;37.45
44697;BME280;57264;47.480;19.354;2023-04-27T06:46:17;99487.56;;;13.59;41.51
44697;BME280;57264;47.480;19.354;2023-04-27T06:48:43;99484.16;;;13.89;38.56
44697;BME280;57264;47.480;19.354;2023-04-27T06:51:09;99497.88;;;13.61;40.36
44697;BME280;57264;47.480;19.354;2023-04-27T06:53:35;99489.97;;;13.79;38.92
44697;BME280;57264;47.480;19.354;2023-04-27T06:56:01;99496.16;;;13.30;41.45
44697;BME280;57264;47.480;19.354;2023-04-27T06:58:26;99494.72;;;13.03;42.75
44697;BME280;57264;47.480;19.354;2023-04-27T07:00:52;99502.03;;;13.01;44.21
44697;BME280;57264;47.480;19.354;2023-04-27T07:03:19;99493.97;;;13.45;42.82
44697;BME280;57264;47.480;19.354;2023-04-27T07:05:45;99498.91;;;13.78;40.35
44697;BME280;57264;47.480;19.354;2023-04-27T07:08:11;99496.50;;;13.95;40.33
44697;BME280;57264;47.480;19.354;2023-04-27T07:10:37;99496.75;;;14.41;39.00
44697;BME280;57264;47.480;19.354;2023-04-27T07:13:02;99494.50;;;14.98;38.23
44697;BME280;57264;47.480;19.354;2023-04-27T07:15:29;99501.00;;;14.24;39.61
44697;BME280;57264;47.480;19.354;2023-04-27T07:17:55;99496.66;;;14.30;40.64
44697;BME280;57264;47.480;19.354;2023-04-27T07:20:22;99502.63;;;14.25;39.47
44697;BME280;57264;47.480;19.354;2023-04-27T07:22:48;99496.19;;;14.03;39.69
44697;BME280;57264;47.480;19.354;2023-04-27T07:25:14;99507.25;;;13.32;42.54
44697;BME280;57264;47.480;19.354;2023-04-27T07:27:39;99509.00;;;12.89;42.65
44697;BME280;57264;47.480;19.354;2023-04-27T07:30:06;99511.22;;;13.23;40.49
44697;BME280;57264;47.480;19.354;2023-04-27T07:32:35;99512.06;;;12.86;43.40
44697;BME280;57264;47.480;19.354;2023-04-27T07:35:04;99517.72;;;12.13;43.10
44697;BME280;57264;47.480;19.354;2023-04-27T07:37:29;99505.88;;;12.36;43.25
44697;BME280;57264;47.480;19.354;2023-04-27T07:39:55;99512.91;;;12.48;42.84
44697;BME280;57264;47.480;19.354;2023-04-27T07:42:22;99509.66;;;13.09;40.84
44697;BME280;57264;47.480;19.354;2023-04-27T07:44:47;99518.34;;;12.53;42.40
44697;BME280;57264;47.480;19.354;2023-04-27T07:47:15;99510.38;;;12.66;41.90
44697;BME280;57264;47.480;19.354;2023-04-27T07:49:42;99514.97;;;12.78;40.33
44697;BME280;57264;47.480;19.354;2023-04-27T07:52:11;99518.25;;;12.29;41.38
44697;BME280;57264;47.480;19.354;2023-04-27T07:54:36;99519.47;;;12.33;41.20
44697;BME280;57264;47.480;19.354;2023-04-27T07:57:10;99523.94;;;11.48;41.28
44697;BME280;57264;47.480;19.354;2023-04-27T07:59:37;99519.66;;;11.80;41.07
44697;BME280;57264;47.480;19.354;2023-04-27T08:02:03;99518.03;;;11.86;40.26
44697;BME280;57264;47.480;19.354;2023-04-27T08:04:29;99523.00;;;12.13;38.65
44697;BME280;57264;47.480;19.354;2023-04-27T08:06:54;99510.06;;;12.05;39.55
44697;BME280;57264;47.480;19.354;2023-04-27T08:09:20;99520.41;;;12.45;36.86
44697;BME280;57264;47.480;19.354;2023-04-27T08:11:46;99511.41;;;12.21;34.51
44697;BME280;57264;47.480;19.354;2023-04-27T08:14:11;99514.28;;;12.19;35.88
44697;BME280;57264;47.480;19.354;2023-04-27T08:16:40;99513.25;;;12.20;35.31
44697;BME280;57264;47.480;19.354;2023-04-27T08:19:06;99515.53;;;12.48;37.51
44697;BME280;57264;47.480;19.354;2023-04-27T08:21:37;99508.50;;;12.74;35.86
44697;BME280;57264;47.480;19.354;2023-04-27T08:24:04;99508.47;;;13.11;37.68
44697;BME280;57264;47.480;19.354;2023-04-27T08:26:31;99512.00;;;12.99;35.52
44697;BME280;57264;47.480;19.354;2023-04-27T08:28:56;99511.50;;;12.46;36.33
44697;BME280;57264;47.480;19.354;2023-04-27T08:31:25;99512.03;;;12.61;37.79
44697;BME280;57264;47.480;19.354;2023-04-27T08:33:51;99515.22;;;12.70;37.54
44697;BME280;57264;47.480;19.354;2023-04-27T08:36:18;99517.22;;;11.85;34.77
44697;BME280;57264;47.480;19.354;2023-04-27T08:38:43;99522.19;;;12.19;34.36
44697;BME280;57264;47.480;19.354;2023-04-27T08:41:09;99515.63;;;11.71;35.36
44697;BME280;57264;47.480;19.354;2023-04-27T08:43:35;99515.06;;;12.20;34.28
44697;BME280;57264;47.480;19.354;2023-04-27T08:46:01;99520.47;;;11.61;32.48
44697;BME280;57264;47.480;19.354;2023-04-27T08:48:27;99519.44;;;11.82;34.44
44697;BME280;57264;47.480;19.354;2023-04-27T08:50:55;99523.19;;;12.12;34.23
44697;BME280;57264;47.480;19.354;2023-04-27T08:53:22;99517.44;;;12.28;31.83
44697;BME280;57264;47.480;19.354;2023-04-27T08:55:48;99516.50;;;12.92;31.94
44697;BME280;57264;47.480;19.354;2023-04-27T08:58:14;99513.31;;;13.57;32.75
44697;BME280;57264;47.480;19.354;2023-04-27T09:00:50;99518.16;;;13.42;31.71
44697;BME280;57264;47.480;19.354;2023-04-27T09:03:23;99517.53;;;12.91;31.78
44697;BME280;57264;47.480;19.354;2023-04-27T09:05:49;99514.00;;;13.28;31.23
44697;BME280;57264;47.480;19.354;2023-04-27T09:08:15;99510.03;;;12.88;31.93
44697;BME280;57264;47.480;19.354;2023-04-27T09:10:48;99504.19;;;12.54;30.44
44697;BME280;57264;47.480;19.354;2023-04-27T09:13:14;99515.47;;;12.24;30.43
44697;BME280;57264;47.480;19.354;2023-04-27T09:15:49;99507.06;;;12.78;29.15
44697;BME280;57264;47.480;19.354;2023-04-27T09:18:18;99501.97;;;12.83;27.66
44697;BME280;57264;47.480;19.354;2023-04-27T09:20:50;99499.03;;;12.66;28.87
44697;BME280;57264;47.480;19.354;2023-04-27T09:23:29;99501.53;;;12.54;28.82
44697;BME280;57264;47.480;19.354;2023-04-27T09:25:57;99498.22;;;12.65;27.99
44697;BME280;57264;47.480;19.354;2023-04-27T09:28:24;99487.16;;;13.13;27.92
44697;BME280;57264;47.480;19.354;2023-04-27T09:30:59;99492.50;;;13.31;31.61
44697;BME280;57264;47.480;19.354;2023-04-27T09:33:29;99489.31;;;13.66;32.07
44697;BME280;57264;47.480;19.354;2023-04-27T09:36:03;99488.34;;;13.96;28.89
44697;BME280;57264;47.480;19.354;2023-04-27T09:38:30;99488.53;;;13.40;31.20
44697;BME280;57264;47.480;19.354;2023-04-27T09:40:55;99482.69;;;13.13;30.44
44697;BME280;57264;47.480;19.354;2023-04-27T09:43:25;99485.44;;;13.25;31.56
44697;BME280;57264;47.480;19.354;2023-04-27T09:45:57;99483.13;;;13.53;32.22
44697;BME280;57264;47.480;19.354;2023-04-27T09:48:24;99489.56;;;13.39;31.15
44697;BME280;57264;47.480;19.354;2023-04-27T09:50:51;99485.22;;;13.27;32.48
44697;BME280;57264;47.480;19.354;2023-04-27T09:53:18;99485.88;;;13.22;30.36
44697;BME280;57264;47.480;19.354;2023-04-27T10:01:38;99485.94;;;12.84;31.09
44697;BME280;57264;47.480;19.354;2023-04-27T10:07:01;99478.13;;;12.71;31.72
44697;BME280;57264;47.480;19.354;2023-04-27T10:12:32;99473.84;;;12.45;32.69
44697;BME280;57264;47.480;19.354;2023-04-27T10:15:14;99459.34;;;12.61;32.90
44697;BME280;57264;47.480;19.354;2023-04-27T10:17:51;99469.31;;;12.21;34.27
44697;BME280;57264;47.480;19.354;2023-04-27T10:20:36;99470.06;;;12.66;34.37
44697;BME280;57264;47.480;19.354;2023-04-27T10:23:02;99465.56;;;12.98;34.40
44697;BME280;57264;47.480;19.354;2023-04-27T10:25:36;99461.84;;;12.81;32.92
44697;BME280;57264;47.480;19.354;2023-04-27T10:28:03;99457.59;;;13.04;31.88
44697;BME280;57264;47.480;19.354;2023-04-27T10:30:38;99461.13;;;12.98;35.83
44697;BME280;57264;47.480;19.354;2023-04-27T10:33:06;99462.72;;;12.99;34.47
44697;BME280;57264;47.480;19.354;2023-04-27T10:35:37;99461.66;;;13.32;33.72
44697;BME280;57264;47.480;19.354;2023-04-27T10:38:14;99464.28;;;13.07;32.28
44697;BME280;57264;47.480;19.354;2023-04-27T10:40:43;99470.34;;;13.32;33.58
44697;BME280;57264;47.480;19.354;2023-04-27T10:43:13;99461.38;;;13.58;34.66
44697;BME280;57264;47.480;19.354;2023-04-27T10:45:41;99464.84;;;13.58;30.96
44697;BME280;57264;47.480;19.354;2023-04-27T10:48:07;99458.97;;;13.56;32.88
44697;BME280;57264;47.480;19.354;2023-04-27T10:50:33;99462.84;;;13.72;32.89
44697;BME280;57264;47.480;19.354;2023-04-27T10:53:03;99456.19;;;13.88;33.41
44697;BME280;57264;47.480;19.354;2023-04-27T10:55:29;99448.41;;;14.41;32.49
44697;BME280;57264;47.480;19.354;2023-04-27T10:57:56;99451.59;;;14.13;30.09
44697;BME280;57264;47.480;19.354;2023-04-27T11:00:27;99449.47;;;14.51;33.26
44697;BME280;57264;47.480;19.354;2023-04-27T11:02:55;99445.72;;;14.59;29.39
44697;BME280;57264;47.480;19.354;2023-04-27T11:05:24;99447.06;;;14.20;30.54
44697;BME280;57264;47.480;19.354;2023-04-27T11:08:06;99458.44;;;14.02;31.16
44697;BME280;57264;47.480;19.354;2023-04-27T11:10:33;99451.88;;;14.23;31.51
44697;BME280;57264;47.480;19.354;2023-04-27T11:13:11;99452.94;;;14.04;32.23
44697;BME280;57264;47.480;19.354;2023-04-27T11:15:50;99462.53;;;13.98;31.74
44697;BME280;57264;47.480;19.354;2023-04-27T11:18:18;99449.28;;;13.87;30.48
44697;BME280;57264;47.480;19.354;2023-04-27T11:20:48;99451.63;;;13.77;31.14
44697;BME280;57264;47.480;19.354;2023-04-27T11:23:28;99448.00;;;13.59;31.49
44697;BME280;57264;47.480;19.354;2023-04-27T11:25:55;99455.13;;;13.34;31.36
44697;BME280;57264;47.480;19.354;2023-04-27T11:28:24;99457.75;;;12.85;30.79
44697;BME280;57264;47.480;19.354;2023-04-27T11:30:59;99456.38;;;12.82;32.95
44697;BME280;57264;47.480;19.354;2023-04-27T11:33:26;99456.38;;;13.07;34.61
44697;BME280;57264;47.480;19.354;2023-04-27T11:35:52;99445.44;;;13.10;33.14
44697;BME280;57264;47.480;19.354;2023-04-27T11:38:18;99442.13;;;12.90;29.74
44697;BME280;57264;47.480;19.354;2023-04-27T11:40:46;99443.19;;;12.57;32.36
44697;BME280;57264;47.480;19.354;2023-04-27T11:43:13;99453.19;;;12.74;35.10
44697;BME280;57264;47.480;19.354;2023-04-27T11:45:43;99446.75;;;12.70;32.52
44697;BME280;57264;47.480;19.354;2023-04-27T11:48:14;99445.88;;;12.44;31.87
44697;BME280;57264;47.480;19.354;2023-04-27T11:50:40;99449.81;;;12.35;31.96
44697;BME280;57264;47.480;19.354;2023-04-27T11:53:05;99445.75;;;12.39;33.20
44697;BME280;57264;47.480;19.354;2023-04-27T11:55:35;99450.91;;;12.52;32.49
44697;BME280;57264;47.480;19.354;2023-04-27T11:58:01;99449.94;;;12.47;33.10
44697;BME280;57264;47.480;19.354;2023-04-27T12:00:27;99446.78;;;12.63;33.11
44697;BME280;57264;47.480;19.354;2023-04-27T12:02:52;99438.78;;;12.76;32.90
44697;BME280;57264;47.480;19.354;2023-04-27T12:05:18;99441.22;;;12.78;32.41
44697;BME280;57264;47.480;19.354;2023-04-27T12:07:44;99435.13;;;12.77;31.85
44697;BME280;57264;47.480;19.354;2023-04-27T12:10:10;99436.53;;;12.80;33.03
44697;BME280;57264;47.480;19.354;2023-04-27T12:12:36;99442.22;;;12.77;32.41
44697;BME280;57264;47.480;19.354;2023-04-27T12:15:02;99436.75;;;13.03;33.80
44697;BME280;57264;47.480;19.354;2023-04-27T12:17:28;99433.44;;;13.14;34.09
44697;BME280;57264;47.480;19.354;2023-04-27T12:19:54;99428.91;;;13.21;32.71
44697;BME280;57264;47.480;19.354;2023-04-27T12:22:19;99430.69;;;13.45;34.78
44697;BME280;57264;47.480;19.354;2023-04-27T12:24:45;99430.75;;;13.75;31.57
44697;BME280;57264;47.480;19.354;2023-04-27T12:27:11;99441.97;;;13.52;32.14
44697;BME280;57264;47.480;19.354;2023-04-27T12:29:37;99433.59;;;13.19;32.04
44697;BME280;57264;47.480;19.354;2023-04-27T12:32:03;99436.06;;;13.14;32.47
44697;BME280;57264;47.480;19.354;2023-04-27T12:34:28;99433.50;;;13.01;32.10
44697;BME280;57264;47.480;19.354;2023-04-27T12:36:54;99435.47;;;13.12;30.57
44697;BME280;57264;47.480;19.354;2023-04-27T12:39:21;99434.63;;;13.18;34.17
44697;BME280;57264;47.480;19.354;2023-04-27T12:41:53;99433.06;;;13.10;32.82
44697;BME280;57264;47.480;19.354;2023-04-27T12:44:19;99439.06;;;13.18;33.32
44697;BME280;57264;47.480;19.354;2023-04-27T12:46:45;99421.69;;;13.35;29.98
44697;BME280;57264;47.480;19.354;2023-04-27T12:49:13;99421.16;;;13.26;32.18
44697;BME280;57264;47.480;19.354;2023-04-27T12:51:38;99417.06;;;13.67;31.91
44697;BME280;57264;47.480;19.354;2023-04-27T12:54:05;99416.84;;;13.50;31.92
44697;BME280;57264;47.480;19.354;2023-04-27T12:56:32;99424.03;;;13.43;29.78
44697;BME280;57264;47.480;19.354;2023-04-27T12:58:58;99426.06;;;13.95;31.15
44697;BME280;57264;47.480;19.354;2023-04-27T13:01:27;99413.97;;;13.88;31.81
44697;BME280;57264;47.480;19.354;2023-04-27T13:03:53;99412.09;;;14.06;31.39
44697;BME280;57264;47.480;19.354;2023-04-27T13:06:20;99415.50;;;13.95;31.46